createdAt,value
2023-04-29T00:00:11.894Z,10.90
2023-04-29T00:02:40.805Z,10.90
2023-04-29T00:05:10.546Z,10.90
2023-04-29T00:07:39.383Z,11.00
2023-04-29T00:10:08.947Z,11.00
2023-04-29T00:12:39.147Z,11.10
2023-04-29T00:15:08.995Z,11.10
2023-04-29T00:17:38.026Z,11.10
2023-04-29T00:20:08.241Z,11.00
2023-04-29T00:22:36.961Z,11.10
2023-04-29T00:25:06.690Z,11.10
2023-04-29T00:27:35.366Z,11.10
2023-04-29T00:30:06.749Z,11.20
2023-04-29T00:32:35.440Z,11.20
2023-04-29T00:35:04.557Z,11.30
2023-04-29T00:37:33.390Z,11.30
2023-04-29T00:40:02.153Z,11.40
2023-04-29T00:42:33.394Z,11.30
2023-04-29T00:45:02.466Z,11.30
2023-04-29T00:47:33.033Z,11.20
2023-04-29T00:50:02.098Z,11.10
2023-04-29T00:52:32.530Z,11.10
2023-04-29T00:55:01.671Z,11.00
2023-04-29T00:57:30.472Z,11.00
2023-04-29T00:59:59.854Z,10.90
2023-04-29T01:02:29.645Z,10.90
2023-04-29T01:04:59.797Z,10.80
2023-04-29T01:07:36.399Z,10.80
2023-04-29T01:10:11.195Z,10.80
2023-04-29T01:12:47.002Z,10.80
2023-04-29T01:15:23.481Z,10.80
2023-04-29T01:17:58.004Z,10.80
2023-04-29T01:20:29.257Z,10.70
2023-04-29T01:22:58.189Z,10.60
2023-04-29T01:25:28.900Z,10.60
2023-04-29T01:28:27.358Z,10.60
2023-04-29T01:31:02.365Z,10.50
2023-04-29T01:33:39.568Z,10.50
2023-04-29T01:36:18.338Z,10.40
2023-04-29T01:38:54.456Z,10.40
2023-04-29T01:41:36.345Z,10.40
2023-04-29T01:44:31.913Z,10.30
2023-04-29T01:47:02.735Z,10.20
2023-04-29T01:49:43.538Z,10.20
2023-04-29T01:52:12.721Z,10.20
2023-04-29T01:54:43.446Z,10.20
2023-04-29T01:57:13.928Z,10.20
2023-04-29T02:00:10.336Z,10.20
2023-04-29T02:02:42.193Z,10.20
2023-04-29T02:05:34.567Z,10.20
2023-04-29T02:08:04.016Z,10.20
2023-04-29T02:10:38.713Z,10.20
2023-04-29T02:13:26.906Z,10.20
2023-04-29T02:15:56.066Z,10.20
2023-04-29T02:18:24.898Z,10.20
2023-04-29T02:21:01.208Z,10.10
2023-04-29T02:23:30.504Z,10.10
2023-04-29T02:25:59.026Z,10.00
2023-04-29T02:28:29.428Z,9.90
2023-04-29T02:30:59.425Z,9.90
2023-04-29T02:33:28.145Z,9.90
2023-04-29T02:35:56.824Z,9.80
2023-04-29T02:38:25.784Z,9.70
2023-04-29T02:40:54.444Z,9.60
2023-04-29T02:43:23.685Z,9.60
2023-04-29T02:45:54.101Z,9.50
2023-04-29T02:48:23.013Z,9.50
2023-04-29T02:50:51.775Z,9.50
2023-04-29T02:53:21.195Z,9.50
2023-04-29T02:55:50.036Z,9.50
2023-04-29T02:58:18.855Z,9.50
2023-04-29T03:00:47.630Z,9.60
2023-04-29T03:03:18.000Z,9.60
2023-04-29T03:05:49.227Z,9.60
2023-04-29T03:08:17.917Z,9.60
2023-04-29T03:10:46.748Z,9.70
2023-04-29T03:13:15.366Z,9.70
2023-04-29T03:15:46.142Z,9.80
2023-04-29T03:18:14.905Z,9.80
2023-04-29T03:20:44.891Z,9.80
2023-04-29T03:23:13.426Z,9.80
2023-04-29T03:25:42.182Z,9.80
2023-04-29T03:28:10.815Z,9.80
2023-04-29T03:30:40.156Z,9.80
2023-04-29T03:33:08.982Z,9.80
2023-04-29T03:35:37.728Z,9.90
2023-04-29T03:38:38.320Z,9.90
2023-04-29T03:41:07.670Z,9.90
2023-04-29T03:43:36.544Z,9.90
2023-04-29T03:46:05.101Z,10.00
2023-04-29T03:48:33.902Z,10.00
2023-04-29T03:51:02.863Z,10.00
2023-04-29T03:53:31.710Z,10.10
2023-04-29T03:56:02.684Z,10.10
2023-04-29T03:58:31.458Z,10.20
2023-04-29T04:01:00.166Z,10.20
2023-04-29T04:03:36.320Z,10.20
2023-04-29T04:06:06.706Z,10.20
2023-04-29T04:08:35.548Z,10.30
2023-04-29T04:11:17.322Z,10.30
2023-04-29T04:13:57.808Z,10.30
2023-04-29T04:16:26.952Z,10.20
2023-04-29T04:18:55.696Z,10.20
2023-04-29T04:21:25.258Z,10.30
2023-04-29T04:24:01.119Z,10.30
2023-04-29T04:26:32.683Z,10.40
2023-04-29T04:29:01.340Z,10.30
2023-04-29T04:31:47.289Z,10.30
2023-04-29T04:34:17.700Z,10.40
2023-04-29T04:36:48.965Z,10.40
2023-04-29T04:39:17.734Z,10.50
2023-04-29T04:41:48.005Z,10.50
2023-04-29T04:44:16.787Z,10.70
2023-04-29T04:46:58.002Z,10.70
2023-04-29T04:49:38.782Z,10.70
2023-04-29T04:52:08.444Z,10.80
2023-04-29T04:54:38.350Z,10.90
2023-04-29T04:57:16.966Z,11.00
2023-04-29T04:59:46.593Z,11.00
2023-04-29T05:02:15.360Z,11.10
2023-04-29T05:04:44.738Z,11.10
2023-04-29T05:07:16.086Z,11.20
2023-04-29T05:10:06.900Z,11.30
2023-04-29T05:12:41.116Z,11.40
2023-04-29T05:15:10.836Z,11.50
2023-04-29T05:17:39.801Z,11.50
2023-04-29T05:20:10.092Z,11.60
2023-04-29T05:22:38.865Z,11.70
2023-04-29T05:25:08.445Z,11.80
2023-04-29T05:27:38.355Z,11.90
2023-04-29T05:30:11.920Z,12.00
2023-04-29T05:32:40.848Z,12.20
2023-04-29T05:35:13.509Z,12.40
2023-04-29T05:37:42.339Z,12.60
2023-04-29T05:40:23.394Z,12.80
2023-04-29T05:42:53.282Z,12.90
2023-04-29T05:45:25.015Z,13.00
2023-04-29T05:47:54.479Z,13.00
2023-04-29T05:50:24.238Z,13.00
2023-04-29T05:52:54.852Z,13.10
2023-04-29T05:55:24.375Z,13.20
2023-04-29T05:57:53.352Z,13.30
2023-04-29T06:00:22.608Z,13.30
2023-04-29T06:02:58.972Z,13.30
2023-04-29T06:05:30.888Z,13.30
2023-04-29T06:08:20.751Z,13.30
2023-04-29T06:10:55.124Z,13.40
2023-04-29T06:13:23.864Z,13.50
2023-04-29T06:15:52.550Z,13.70
2023-04-29T06:18:24.643Z,13.90
2023-04-29T06:21:18.158Z,14.20
2023-04-29T06:23:47.372Z,14.40
2023-04-29T06:26:19.295Z,14.50
2023-04-29T06:28:48.306Z,14.70
2023-04-29T06:31:17.996Z,14.70
2023-04-29T06:33:48.311Z,14.90
2023-04-29T06:36:17.754Z,14.90
2023-04-29T06:38:46.507Z,15.00
2023-04-29T06:41:33.974Z,15.10
2023-04-29T06:44:02.493Z,15.20
2023-04-29T06:46:49.805Z,15.30
2023-04-29T06:49:43.940Z,15.30
2023-04-29T06:52:12.741Z,15.20
2023-04-29T06:54:41.454Z,15.20
2023-04-29T06:57:10.112Z,15.10
2023-04-29T06:59:38.964Z,15.00
2023-04-29T07:02:11.740Z,14.90
2023-04-29T07:04:43.170Z,14.90
2023-04-29T07:07:12.400Z,15.00
2023-04-29T07:09:41.115Z,15.10
2023-04-29T07:12:09.878Z,15.30
2023-04-29T07:15:30.093Z,15.50
2023-04-29T07:17:58.931Z,15.60
2023-04-29T07:20:29.230Z,15.80
2023-04-29T07:22:57.987Z,15.90
2023-04-29T07:25:28.074Z,15.90
2023-04-29T07:27:57.647Z,16.00
2023-04-29T07:30:27.421Z,16.00
2023-04-29T07:32:56.881Z,16.00
2023-04-29T07:35:28.967Z,16.10
2023-04-29T07:37:58.096Z,16.40
2023-04-29T07:40:27.446Z,16.60
2023-04-29T07:43:02.086Z,16.80
2023-04-29T07:45:30.833Z,17.00
2023-04-29T07:47:59.591Z,17.20
2023-04-29T07:50:29.761Z,17.20
2023-04-29T07:53:00.640Z,17.20
2023-04-29T07:55:30.072Z,17.20
2023-04-29T07:58:00.629Z,17.10
2023-04-29T08:00:29.670Z,17.10
2023-04-29T08:02:58.952Z,17.20
2023-04-29T08:05:30.924Z,17.30
2023-04-29T08:08:00.161Z,17.30
2023-04-29T08:10:29.313Z,17.30
2023-04-29T08:12:58.351Z,17.40
2023-04-29T08:15:27.380Z,17.40
2023-04-29T08:17:56.421Z,17.20
2023-04-29T08:20:25.148Z,17.00
2023-04-29T08:22:55.392Z,16.90
2023-04-29T08:25:24.068Z,16.60
2023-04-29T08:27:52.745Z,16.40
2023-04-29T08:30:21.730Z,16.30
2023-04-29T08:32:50.960Z,16.40
2023-04-29T08:35:19.779Z,16.40
2023-04-29T08:37:48.915Z,16.40
2023-04-29T08:40:19.216Z,16.30
2023-04-29T08:42:50.001Z,16.20
2023-04-29T08:45:21.289Z,16.30
2023-04-29T08:47:51.549Z,16.40
2023-04-29T08:50:20.550Z,16.40
2023-04-29T08:52:49.538Z,16.40
2023-04-29T08:55:19.764Z,16.50
2023-04-29T08:57:51.048Z,16.50
2023-04-29T09:00:21.118Z,16.50
2023-04-29T09:02:52.762Z,16.40
2023-04-29T09:05:22.003Z,16.10
2023-04-29T09:07:52.825Z,15.70
2023-04-29T09:10:23.211Z,15.50
2023-04-29T09:12:51.975Z,15.40
2023-04-29T09:15:20.727Z,15.50
2023-04-29T09:17:50.541Z,15.70
2023-04-29T09:20:29.433Z,16.10
2023-04-29T09:23:00.101Z,16.30
2023-04-29T09:25:31.441Z,16.70
2023-04-29T09:28:00.458Z,17.00
2023-04-29T09:30:30.585Z,17.40
2023-04-29T09:33:09.990Z,17.90
2023-04-29T09:35:41.931Z,18.00
2023-04-29T09:38:15.210Z,18.10
2023-04-29T09:40:57.307Z,18.30
2023-04-29T09:43:27.349Z,18.70
2023-04-29T09:45:56.260Z,18.90
2023-04-29T09:48:34.378Z,18.60
2023-04-29T09:51:04.648Z,18.40
2023-04-29T09:53:37.983Z,18.20
2023-04-29T09:56:09.504Z,18.00
2023-04-29T09:58:41.450Z,18.10
2023-04-29T10:01:13.353Z,18.00
2023-04-29T10:03:44.407Z,17.90
2023-04-29T10:06:14.594Z,17.90
2023-04-29T10:08:43.387Z,18.00
2023-04-29T10:11:15.309Z,18.00
2023-04-29T10:13:45.366Z,18.10
2023-04-29T10:16:28.129Z,18.10
2023-04-29T10:18:58.356Z,18.10
2023-04-29T10:21:31.504Z,18.30
2023-04-29T10:24:03.332Z,18.50
2023-04-29T10:26:37.337Z,18.40
2023-04-29T10:29:08.822Z,18.50
2023-04-29T10:31:39.996Z,18.40
2023-04-29T10:34:08.808Z,18.50
2023-04-29T10:36:39.220Z,18.40
2023-04-29T10:39:14.131Z,18.50
2023-04-29T10:41:47.697Z,18.80
2023-04-29T10:44:16.558Z,19.00
2023-04-29T10:46:45.298Z,19.20
2023-04-29T10:49:14.648Z,19.50
2023-04-29T10:51:44.895Z,19.60
2023-04-29T10:54:16.328Z,19.60
2023-04-29T10:56:50.460Z,19.70
2023-04-29T10:59:23.108Z,19.70
2023-04-29T11:01:53.080Z,19.60
2023-04-29T11:04:23.440Z,19.40
2023-04-29T11:06:55.020Z,19.20
2023-04-29T11:09:27.348Z,19.20
2023-04-29T11:12:05.781Z,19.00
2023-04-29T11:14:38.396Z,18.60
2023-04-29T11:17:10.221Z,18.50
2023-04-29T11:19:45.115Z,18.40
2023-04-29T11:22:27.836Z,18.50
2023-04-29T11:25:00.470Z,18.70
2023-04-29T11:27:32.768Z,18.70
2023-04-29T11:30:03.998Z,18.60
2023-04-29T11:32:34.233Z,18.30
2023-04-29T11:35:10.551Z,17.90
2023-04-29T11:37:39.939Z,17.70
2023-04-29T11:40:10.073Z,17.60
2023-04-29T11:42:43.750Z,17.60
2023-04-29T11:45:12.977Z,17.70
2023-04-29T11:47:46.415Z,17.80
2023-04-29T11:50:18.488Z,17.80
2023-04-29T11:52:49.158Z,17.80
2023-04-29T11:55:17.817Z,17.60
2023-04-29T11:57:51.398Z,17.40
2023-04-29T12:00:20.646Z,17.30
2023-04-29T12:02:50.252Z,17.20
2023-04-29T12:05:19.584Z,17.30
2023-04-29T12:07:50.588Z,17.50
2023-04-29T12:10:21.142Z,17.60
2023-04-29T12:12:51.535Z,17.70
2023-04-29T12:15:20.321Z,17.70
2023-04-29T12:17:49.364Z,17.90
2023-04-29T12:20:18.331Z,18.10
2023-04-29T12:22:47.026Z,18.30
2023-04-29T12:25:18.359Z,18.40
2023-04-29T12:27:47.179Z,18.30
2023-04-29T12:30:17.722Z,18.20
2023-04-29T12:32:48.835Z,18.20
2023-04-29T12:35:18.812Z,18.10
2023-04-29T12:37:50.983Z,18.00
2023-04-29T12:40:20.895Z,18.00
2023-04-29T12:42:49.845Z,17.90
2023-04-29T12:45:31.919Z,17.90
2023-04-29T12:48:01.674Z,17.90
2023-04-29T12:50:34.798Z,18.00
2023-04-29T12:53:05.203Z,18.00
2023-04-29T12:55:35.813Z,18.00
2023-04-29T12:58:04.859Z,18.00
2023-04-29T13:00:37.502Z,18.10
2023-04-29T13:03:06.806Z,18.10
2023-04-29T13:05:35.798Z,18.20
2023-04-29T13:08:06.224Z,18.30
2023-04-29T13:10:35.640Z,18.30
2023-04-29T13:13:04.350Z,18.40
2023-04-29T13:15:34.599Z,18.40
2023-04-29T13:18:03.486Z,18.20
2023-04-29T13:20:32.726Z,18.10
2023-04-29T13:23:01.510Z,18.00
2023-04-29T13:25:30.639Z,18.00
2023-04-29T13:27:59.521Z,18.00
2023-04-29T13:30:28.223Z,18.10
2023-04-29T13:33:03.963Z,18.10
2023-04-29T13:35:40.287Z,17.90
2023-04-29T13:38:09.285Z,17.70
2023-04-29T13:40:40.933Z,17.50
2023-04-29T13:43:17.002Z,17.40
2023-04-29T13:45:55.700Z,17.20
2023-04-29T13:54:17.615Z,16.50
2023-04-29T13:59:37.243Z,16.20
2023-04-29T14:04:15.678Z,15.90
2023-04-29T14:06:45.224Z,15.80
2023-04-29T14:09:14.118Z,15.80
2023-04-29T14:11:42.800Z,15.90
2023-04-29T14:14:13.405Z,15.90
2023-04-29T14:16:42.650Z,16.00
2023-04-29T14:19:11.878Z,15.90
2023-04-29T14:21:42.290Z,15.80
2023-04-29T14:24:11.150Z,15.70
2023-04-29T14:26:39.933Z,15.60
2023-04-29T14:29:09.109Z,15.50
2023-04-29T14:31:39.242Z,15.40
2023-04-29T14:34:10.726Z,15.30
2023-04-29T14:36:39.381Z,15.40
2023-04-29T14:39:09.753Z,15.50
2023-04-29T14:41:41.537Z,15.60
2023-04-29T14:44:10.417Z,15.80
2023-04-29T14:46:39.509Z,16.00
2023-04-29T14:49:08.804Z,16.20
2023-04-29T14:51:37.617Z,16.30
2023-04-29T14:54:07.835Z,16.20
2023-04-29T14:56:38.120Z,16.20
2023-04-29T14:59:09.227Z,16.10
2023-04-29T15:01:39.976Z,16.20
2023-04-29T15:04:08.921Z,16.30
2023-04-29T15:06:37.871Z,16.40
2023-04-29T15:09:06.829Z,16.50
2023-04-29T15:11:35.688Z,16.60
2023-04-29T15:14:08.700Z,16.70
2023-04-29T15:16:37.589Z,16.70
2023-04-29T15:19:06.762Z,16.50
2023-04-29T15:21:35.577Z,16.40
2023-04-29T15:24:04.678Z,16.30
2023-04-29T15:26:34.432Z,16.20
2023-04-29T15:29:03.621Z,16.10
2023-04-29T15:31:35.543Z,16.00
2023-04-29T15:34:04.469Z,15.90
2023-04-29T15:36:34.700Z,15.80
2023-04-29T15:39:03.685Z,15.70
2023-04-29T15:41:32.357Z,15.60
2023-04-29T15:44:01.329Z,15.50
2023-04-29T15:46:31.959Z,15.40
2023-04-29T15:49:02.481Z,15.30
2023-04-29T15:51:31.828Z,15.20
2023-04-29T15:54:00.646Z,15.10
2023-04-29T15:56:29.451Z,15.00
2023-04-29T15:58:58.148Z,14.90
2023-04-29T16:01:28.316Z,14.80
2023-04-29T16:03:57.151Z,14.80
2023-04-29T16:06:28.726Z,14.70
2023-04-29T16:08:57.678Z,14.60
2023-04-29T16:11:26.493Z,14.50
2023-04-29T16:13:55.202Z,14.60
2023-04-29T16:16:25.743Z,14.50
2023-04-29T16:18:54.791Z,14.50
2023-04-29T16:21:23.489Z,14.50
2023-04-29T16:23:53.823Z,14.50
2023-04-29T16:26:22.633Z,14.50
2023-04-29T16:28:51.966Z,14.50
2023-04-29T16:31:20.836Z,14.50
2023-04-29T16:33:49.745Z,14.50
2023-04-29T16:36:18.659Z,14.50
2023-04-29T16:38:47.362Z,14.60
2023-04-29T16:41:17.519Z,14.60
2023-04-29T16:43:46.418Z,14.60
2023-04-29T16:46:15.538Z,14.60
2023-04-29T16:48:44.345Z,14.60
2023-04-29T16:51:13.386Z,14.60
2023-04-29T16:53:42.959Z,14.70
2023-04-29T16:56:11.721Z,14.70
2023-04-29T16:58:42.010Z,14.70
2023-04-29T17:01:11.402Z,14.70
2023-04-29T17:03:40.166Z,14.70
2023-04-29T17:06:09.075Z,14.60
2023-04-29T17:08:37.691Z,14.60
2023-04-29T17:11:06.812Z,14.60
2023-04-29T17:13:35.509Z,14.50
2023-04-29T17:16:06.441Z,14.50
2023-04-29T17:18:35.350Z,14.40
2023-04-29T17:21:04.105Z,14.30
2023-04-29T17:23:33.133Z,14.30
2023-04-29T17:26:02.228Z,14.20
2023-04-29T17:28:30.922Z,14.20
2023-04-29T17:31:01.225Z,14.10
2023-04-29T17:33:35.493Z,14.10
2023-04-29T17:36:05.144Z,14.00
2023-04-29T17:38:34.358Z,14.00
2023-04-29T17:41:06.449Z,13.90
2023-04-29T17:43:35.755Z,13.90
2023-04-29T17:46:04.589Z,13.80
2023-04-29T17:48:34.729Z,13.70
2023-04-29T17:51:03.469Z,13.70
2023-04-29T17:53:33.472Z,13.60
2023-04-29T17:56:02.242Z,13.50
2023-04-29T17:58:30.922Z,13.50
2023-04-29T18:00:59.701Z,13.40
2023-04-29T18:03:30.919Z,13.40
2023-04-29T18:06:01.184Z,13.30
2023-04-29T18:08:30.028Z,13.30
2023-04-29T18:10:58.690Z,13.20
2023-04-29T18:13:29.812Z,13.20
2023-04-29T18:16:00.189Z,13.10
2023-04-29T18:18:29.051Z,13.10
2023-04-29T18:20:57.788Z,13.00
2023-04-29T18:23:55.107Z,13.00
2023-04-29T18:26:24.153Z,13.00
2023-04-29T18:28:53.058Z,12.90
2023-04-29T18:31:23.345Z,12.90
2023-04-29T18:33:52.119Z,12.90
2023-04-29T18:36:23.820Z,12.90
2023-04-29T18:38:52.426Z,12.80
2023-04-29T18:41:22.615Z,12.90
2023-04-29T18:43:51.374Z,12.80
2023-04-29T18:46:20.252Z,12.80
2023-04-29T18:48:49.081Z,12.80
2023-04-29T18:51:17.941Z,12.80
2023-04-29T18:53:46.672Z,12.70
2023-04-29T18:56:15.443Z,12.70
2023-04-29T18:58:45.863Z,12.60
2023-04-29T19:01:14.558Z,12.60
2023-04-29T19:03:43.249Z,12.60
2023-04-29T19:06:12.047Z,12.50
2023-04-29T19:08:40.783Z,12.50
2023-04-29T19:11:09.514Z,12.50
2023-04-29T19:13:38.209Z,12.50
2023-04-29T19:16:08.437Z,12.50
2023-04-29T19:18:37.082Z,12.50
2023-04-29T19:21:06.258Z,12.40
2023-04-29T19:23:35.137Z,12.50
2023-04-29T19:26:03.858Z,12.40
2023-04-29T19:28:32.826Z,12.40
2023-04-29T19:31:01.629Z,12.40
2023-04-29T19:33:32.144Z,12.40
2023-04-29T19:36:00.967Z,12.40
2023-04-29T19:38:29.758Z,12.40
2023-04-29T19:40:58.593Z,12.30
2023-04-29T19:43:27.436Z,12.30
2023-04-29T19:45:56.378Z,12.30
2023-04-29T19:48:25.077Z,12.40
2023-04-29T19:50:55.448Z,12.40
2023-04-29T19:53:24.215Z,12.40
2023-04-29T19:55:53.997Z,12.40
2023-04-29T19:58:22.773Z,12.30
2023-04-29T20:00:51.583Z,12.30
2023-04-29T20:03:21.582Z,12.20
2023-04-29T20:05:50.335Z,12.30
2023-04-29T20:08:20.356Z,12.20
2023-04-29T20:10:49.481Z,12.20
2023-04-29T20:13:18.128Z,12.20
2023-04-29T20:15:46.822Z,12.20
2023-04-29T20:18:15.757Z,12.20
2023-04-29T20:20:45.443Z,12.20
2023-04-29T20:23:14.401Z,12.20
2023-04-29T20:25:44.596Z,12.20
2023-04-29T20:28:13.547Z,12.10
2023-04-29T20:30:42.187Z,12.10
2023-04-29T20:33:11.016Z,12.10
2023-04-29T20:35:39.621Z,12.10
2023-04-29T20:38:08.724Z,12.00
2023-04-29T20:40:37.621Z,12.00
2023-04-29T20:43:07.903Z,12.00
2023-04-29T20:45:38.496Z,12.00
2023-04-29T20:48:10.368Z,12.00
2023-04-29T20:50:41.126Z,12.00
2023-04-29T20:53:12.675Z,12.00
2023-04-29T20:55:48.275Z,12.00
2023-04-29T20:58:18.400Z,12.00
2023-04-29T21:00:51.589Z,12.00
2023-04-29T21:03:22.421Z,12.00
2023-04-29T21:05:54.746Z,11.90
2023-04-29T21:08:31.109Z,11.90
2023-04-29T21:11:00.012Z,11.90
2023-04-29T21:13:32.739Z,12.00
2023-04-29T21:16:01.522Z,11.90
2023-04-29T21:18:32.860Z,11.90
2023-04-29T21:21:01.581Z,12.00
2023-04-29T21:23:33.346Z,12.10
2023-04-29T21:26:11.246Z,12.10
2023-04-29T21:28:41.517Z,12.10
2023-04-29T21:31:15.515Z,12.00
2023-04-29T21:33:44.503Z,12.00
2023-04-29T21:36:13.389Z,12.00
2023-04-29T21:38:43.287Z,12.00
2023-04-29T21:41:19.495Z,12.00
2023-04-29T21:43:50.415Z,11.90
2023-04-29T21:46:19.764Z,11.90
2023-04-29T21:48:49.073Z,11.90
2023-04-29T21:51:19.283Z,11.90
2023-04-29T21:53:47.984Z,11.90
2023-04-29T21:56:16.940Z,11.80
2023-04-29T21:58:46.410Z,11.90
2023-04-29T22:01:40.491Z,11.90
2023-04-29T22:04:09.438Z,11.90
2023-04-29T22:06:38.679Z,11.80
2023-04-29T22:09:08.829Z,11.80
2023-04-29T22:11:37.564Z,11.70
2023-04-29T22:14:06.716Z,11.70
2023-04-29T22:16:37.178Z,11.60
2023-04-29T22:19:06.077Z,11.60
2023-04-29T22:21:34.816Z,11.60
2023-04-29T22:24:03.496Z,11.60
2023-04-29T22:26:32.086Z,11.60
2023-04-29T22:29:00.874Z,11.60
2023-04-29T22:31:29.718Z,11.60
2023-04-29T22:34:00.088Z,11.60
2023-04-29T22:36:28.957Z,11.60
2023-04-29T22:38:57.560Z,11.60
2023-04-29T22:41:26.263Z,11.60
2023-04-29T22:43:57.674Z,11.60
2023-04-29T22:46:27.035Z,11.60
2023-04-29T22:48:55.849Z,11.60
2023-04-29T22:51:25.950Z,11.60
2023-04-29T22:53:54.693Z,11.50
2023-04-29T22:56:24.659Z,11.50
2023-04-29T22:58:53.317Z,11.50
2023-04-29T23:01:22.144Z,11.50
2023-04-29T23:03:50.890Z,11.50
2023-04-29T23:06:21.277Z,11.50
2023-04-29T23:08:51.558Z,11.50
2023-04-29T23:11:20.255Z,11.50
2023-04-29T23:13:48.838Z,11.50
2023-04-29T23:16:17.554Z,11.60
2023-04-29T23:18:46.219Z,11.60
2023-04-29T23:21:14.879Z,11.60
2023-04-29T23:23:43.686Z,11.60
2023-04-29T23:26:13.860Z,11.50
2023-04-29T23:28:42.720Z,11.50
2023-04-29T23:31:11.528Z,11.50
2023-04-29T23:33:40.335Z,11.50
2023-04-29T23:36:08.972Z,11.50
2023-04-29T23:38:37.644Z,11.50
2023-04-29T23:41:06.584Z,11.50
2023-04-29T23:43:36.647Z,11.50
2023-04-29T23:46:05.256Z,11.40
2023-04-29T23:48:34.448Z,11.40
2023-04-29T23:51:03.210Z,11.30
2023-04-29T23:53:32.002Z,11.30
2023-04-29T23:56:00.726Z,11.30
2023-04-29T23:58:29.423Z,11.30
